sensor_id;sensor_type;location;lat;lon;timestamp;P1;durP1;ratioP1;P2;durP2;ratioP2
5147;SDS011;2592;48.140;7.614;2022-08-19T00:02:24;17.53;;;13.30;;
5147;SDS011;2592;48.140;7.614;2022-08-19T00:04:51;15.40;;;13.77;;
5147;SDS011;2592;48.140;7.614;2022-08-19T00:07:19;15.80;;;14.10;;
5147;SDS011;2592;48.140;7.614;2022-08-19T00:09:45;16.30;;;14.33;;
5147;SDS011;2592;48.140;7.614;2022-08-19T00:12:11;18.07;;;14.07;;
5147;SDS011;2592;48.140;7.614;2022-08-19T00:14:38;14.53;;;13.03;;
5147;SDS011;2592;48.140;7.614;2022-08-19T00:17:07;16.83;;;15.03;;
5147;SDS011;2592;48.140;7.614;2022-08-19T00:19:35;16.80;;;13.83;;
5147;SDS011;2592;48.140;7.614;2022-08-19T00:22:02;15.20;;;13.70;;
5147;SDS011;2592;48.140;7.614;2022-08-19T00:24:30;17.10;;;14.00;;
5147;SDS011;2592;48.140;7.614;2022-08-19T00:26:57;17.97;;;14.63;;
5147;SDS011;2592;48.140;7.614;2022-08-19T00:29:24;15.00;;;13.40;;
5147;SDS011;2592;48.140;7.614;2022-08-19T00:31:51;16.83;;;14.27;;
5147;SDS011;2592;48.140;7.614;2022-08-19T00:34:22;16.73;;;15.00;;
5147;SDS011;2592;48.140;7.614;2022-08-19T00:36:48;18.77;;;16.10;;
5147;SDS011;2592;48.140;7.614;2022-08-19T00:39:16;17.50;;;15.80;;
5147;SDS011;2592;48.140;7.614;2022-08-19T00:41:42;19.43;;;16.83;;
5147;SDS011;2592;48.140;7.614;2022-08-19T00:44:11;18.37;;;15.57;;
5147;SDS011;2592;48.140;7.614;2022-08-19T00:46:39;18.60;;;16.70;;
5147;SDS011;2592;48.140;7.614;2022-08-19T00:49:06;21.90;;;17.87;;
5147;SDS011;2592;48.140;7.614;2022-08-19T00:51:36;20.80;;;18.60;;
5147;SDS011;2592;48.140;7.614;2022-08-19T00:54:03;20.00;;;16.57;;
5147;SDS011;2592;48.140;7.614;2022-08-19T00:56:30;18.43;;;16.63;;
5147;SDS011;2592;48.140;7.614;2022-08-19T00:58:56;21.33;;;18.40;;
5147;SDS011;2592;48.140;7.614;2022-08-19T01:01:24;19.20;;;16.73;;
5147;SDS011;2592;48.140;7.614;2022-08-19T01:03:51;18.70;;;16.20;;
5147;SDS011;2592;48.140;7.614;2022-08-19T01:06:17;19.20;;;16.50;;
5147;SDS011;2592;48.140;7.614;2022-08-19T01:08:45;23.20;;;17.60;;
5147;SDS011;2592;48.140;7.614;2022-08-19T01:11:12;18.40;;;16.53;;
5147;SDS011;2592;48.140;7.614;2022-08-19T01:13:38;20.70;;;17.70;;
5147;SDS011;2592;48.140;7.614;2022-08-19T01:16:05;23.07;;;19.13;;
5147;SDS011;2592;48.140;7.614;2022-08-19T01:18:35;22.60;;;19.50;;
5147;SDS011;2592;48.140;7.614;2022-08-19T01:21:03;24.50;;;18.33;;
5147;SDS011;2592;48.140;7.614;2022-08-19T01:23:33;20.13;;;17.40;;
5147;SDS011;2592;48.140;7.614;2022-08-19T01:26:09;19.20;;;17.27;;
5147;SDS011;2592;48.140;7.614;2022-08-19T01:28:37;22.83;;;18.87;;
5147;SDS011;2592;48.140;7.614;2022-08-19T01:31:03;18.87;;;16.97;;
5147;SDS011;2592;48.140;7.614;2022-08-19T01:33:30;20.93;;;18.73;;
5147;SDS011;2592;48.140;7.614;2022-08-19T01:36:03;20.53;;;18.50;;
5147;SDS011;2592;48.140;7.614;2022-08-19T01:38:29;19.00;;;16.67;;
5147;SDS011;2592;48.140;7.614;2022-08-19T01:40:57;19.00;;;17.10;;
5147;SDS011;2592;48.140;7.614;2022-08-19T01:43:25;21.60;;;17.70;;
5147;SDS011;2592;48.140;7.614;2022-08-19T01:45:51;20.43;;;17.00;;
5147;SDS011;2592;48.140;7.614;2022-08-19T01:48:18;20.93;;;16.50;;
5147;SDS011;2592;48.140;7.614;2022-08-19T01:50:45;19.57;;;16.90;;
5147;SDS011;2592;48.140;7.614;2022-08-19T01:53:13;18.90;;;16.90;;
5147;SDS011;2592;48.140;7.614;2022-08-19T01:55:40;21.77;;;19.43;;
5147;SDS011;2592;48.140;7.614;2022-08-19T01:58:09;22.20;;;18.40;;
5147;SDS011;2592;48.140;7.614;2022-08-19T02:00:36;25.57;;;18.90;;
5147;SDS011;2592;48.140;7.614;2022-08-19T02:03:03;20.67;;;18.47;;
5147;SDS011;2592;48.140;7.614;2022-08-19T02:05:29;22.77;;;18.97;;
5147;SDS011;2592;48.140;7.614;2022-08-19T02:07:56;22.70;;;19.00;;
5147;SDS011;2592;48.140;7.614;2022-08-19T02:10:24;22.40;;;17.67;;
5147;SDS011;2592;48.140;7.614;2022-08-19T02:12:50;20.77;;;18.27;;
5147;SDS011;2592;48.140;7.614;2022-08-19T02:15:19;25.73;;;19.00;;
5147;SDS011;2592;48.140;7.614;2022-08-19T02:17:45;20.67;;;18.53;;
5147;SDS011;2592;48.140;7.614;2022-08-19T02:20:12;20.53;;;18.10;;
5147;SDS011;2592;48.140;7.614;2022-08-19T02:22:39;17.83;;;15.93;;
5147;SDS011;2592;48.140;7.614;2022-08-19T02:25:07;17.80;;;16.07;;
5147;SDS011;2592;48.140;7.614;2022-08-19T02:27:35;19.77;;;17.70;;
5147;SDS011;2592;48.140;7.614;2022-08-19T02:30:04;17.17;;;15.40;;
5147;SDS011;2592;48.140;7.614;2022-08-19T02:32:32;18.27;;;16.07;;
5147;SDS011;2592;48.140;7.614;2022-08-19T02:34:58;19.67;;;15.13;;
5147;SDS011;2592;48.140;7.614;2022-08-19T02:37:25;17.80;;;15.80;;
5147;SDS011;2592;48.140;7.614;2022-08-19T02:40:09;18.33;;;15.97;;
5147;SDS011;2592;48.140;7.614;2022-08-19T02:42:35;18.20;;;16.43;;
5147;SDS011;2592;48.140;7.614;2022-08-19T02:45:02;20.13;;;16.70;;
5147;SDS011;2592;48.140;7.614;2022-08-19T02:47:32;17.00;;;15.33;;
5147;SDS011;2592;48.140;7.614;2022-08-19T02:49:58;18.73;;;15.40;;
5147;SDS011;2592;48.140;7.614;2022-08-19T02:52:26;17.10;;;13.83;;
5147;SDS011;2592;48.140;7.614;2022-08-19T02:54:53;16.43;;;14.73;;
5147;SDS011;2592;48.140;7.614;2022-08-19T02:57:22;18.43;;;14.90;;
5147;SDS011;2592;48.140;7.614;2022-08-19T02:59:49;16.93;;;15.20;;
5147;SDS011;2592;48.140;7.614;2022-08-19T03:02:15;17.57;;;15.80;;
5147;SDS011;2592;48.140;7.614;2022-08-19T03:04:43;17.90;;;16.03;;
5147;SDS011;2592;48.140;7.614;2022-08-19T03:07:12;16.30;;;14.70;;
5147;SDS011;2592;48.140;7.614;2022-08-19T03:09:39;19.20;;;16.10;;
5147;SDS011;2592;48.140;7.614;2022-08-19T03:12:07;17.30;;;15.60;;
5147;SDS011;2592;48.140;7.614;2022-08-19T03:14:33;17.80;;;15.90;;
5147;SDS011;2592;48.140;7.614;2022-08-19T03:17:00;16.53;;;14.20;;
5147;SDS011;2592;48.140;7.614;2022-08-19T03:19:28;17.70;;;13.73;;
5147;SDS011;2592;48.140;7.614;2022-08-19T03:21:56;16.63;;;14.03;;
5147;SDS011;2592;48.140;7.614;2022-08-19T03:24:22;23.20;;;15.13;;
5147;SDS011;2592;48.140;7.614;2022-08-19T03:26:50;18.27;;;14.80;;
5147;SDS011;2592;48.140;7.614;2022-08-19T03:29:17;18.67;;;15.20;;
5147;SDS011;2592;48.140;7.614;2022-08-19T03:31:44;16.00;;;14.40;;
5147;SDS011;2592;48.140;7.614;2022-08-19T03:34:11;16.70;;;14.47;;
5147;SDS011;2592;48.140;7.614;2022-08-19T03:36:37;19.27;;;16.37;;
5147;SDS011;2592;48.140;7.614;2022-08-19T03:39:05;17.23;;;15.30;;
5147;SDS011;2592;48.140;7.614;2022-08-19T03:41:40;18.17;;;16.30;;
5147;SDS011;2592;48.140;7.614;2022-08-19T03:44:06;16.50;;;14.63;;
5147;SDS011;2592;48.140;7.614;2022-08-19T03:46:33;17.87;;;15.97;;
5147;SDS011;2592;48.140;7.614;2022-08-19T03:49:01;16.30;;;14.57;;
5147;SDS011;2592;48.140;7.614;2022-08-19T03:51:29;17.90;;;16.10;;
5147;SDS011;2592;48.140;7.614;2022-08-19T03:53:57;19.70;;;16.70;;
5147;SDS011;2592;48.140;7.614;2022-08-19T03:56:26;26.13;;;15.70;;
5147;SDS011;2592;48.140;7.614;2022-08-19T03:58:52;19.27;;;17.27;;
5147;SDS011;2592;48.140;7.614;2022-08-19T04:01:20;18.80;;;15.70;;
5147;SDS011;2592;48.140;7.614;2022-08-19T04:03:47;18.37;;;16.47;;
5147;SDS011;2592;48.140;7.614;2022-08-19T04:06:15;19.33;;;17.00;;
5147;SDS011;2592;48.140;7.614;2022-08-19T04:08:42;19.07;;;17.10;;
5147;SDS011;2592;48.140;7.614;2022-08-19T04:11:09;23.67;;;16.80;;
5147;SDS011;2592;48.140;7.614;2022-08-19T04:13:37;21.33;;;17.67;;
5147;SDS011;2592;48.140;7.614;2022-08-19T04:16:04;19.87;;;17.77;;
5147;SDS011;2592;48.140;7.614;2022-08-19T04:18:31;20.50;;;17.30;;
5147;SDS011;2592;48.140;7.614;2022-08-19T04:20:58;19.60;;;16.83;;
5147;SDS011;2592;48.140;7.614;2022-08-19T04:23:25;17.20;;;15.50;;
5147;SDS011;2592;48.140;7.614;2022-08-19T04:25:53;15.97;;;14.37;;
5147;SDS011;2592;48.140;7.614;2022-08-19T04:28:19;15.80;;;14.20;;
5147;SDS011;2592;48.140;7.614;2022-08-19T04:30:48;16.70;;;15.13;;
5147;SDS011;2592;48.140;7.614;2022-08-19T04:33:15;18.47;;;14.70;;
5147;SDS011;2592;48.140;7.614;2022-08-19T04:35:43;15.73;;;14.03;;
5147;SDS011;2592;48.140;7.614;2022-08-19T04:38:10;15.50;;;13.90;;
5147;SDS011;2592;48.140;7.614;2022-08-19T04:40:39;14.80;;;13.37;;
5147;SDS011;2592;48.140;7.614;2022-08-19T04:43:23;15.67;;;14.10;;
5147;SDS011;2592;48.140;7.614;2022-08-19T04:45:51;17.30;;;14.40;;
5147;SDS011;2592;48.140;7.614;2022-08-19T04:48:17;16.80;;;15.00;;
5147;SDS011;2592;48.140;7.614;2022-08-19T04:50:51;18.97;;;16.30;;
5147;SDS011;2592;48.140;7.614;2022-08-19T04:53:21;14.90;;;13.40;;
5147;SDS011;2592;48.140;7.614;2022-08-19T04:55:48;14.80;;;13.40;;
5147;SDS011;2592;48.140;7.614;2022-08-19T04:58:14;21.20;;;15.50;;
5147;SDS011;2592;48.140;7.614;2022-08-19T05:00:41;15.30;;;13.80;;
5147;SDS011;2592;48.140;7.614;2022-08-19T05:03:09;17.60;;;14.57;;
5147;SDS011;2592;48.140;7.614;2022-08-19T05:05:38;16.30;;;14.10;;
5147;SDS011;2592;48.140;7.614;2022-08-19T05:08:05;14.43;;;12.97;;
5147;SDS011;2592;48.140;7.614;2022-08-19T05:10:34;15.70;;;13.50;;
5147;SDS011;2592;48.140;7.614;2022-08-19T05:13:00;16.93;;;13.57;;
5147;SDS011;2592;48.140;7.614;2022-08-19T05:15:27;16.23;;;14.53;;
5147;SDS011;2592;48.140;7.614;2022-08-19T05:17:53;16.00;;;14.30;;
5147;SDS011;2592;48.140;7.614;2022-08-19T05:20:39;14.47;;;12.93;;
5147;SDS011;2592;48.140;7.614;2022-08-19T05:23:22;15.23;;;13.37;;
5147;SDS011;2592;48.140;7.614;2022-08-19T05:25:49;14.63;;;13.13;;
5147;SDS011;2592;48.140;7.614;2022-08-19T05:28:16;16.27;;;14.60;;
5147;SDS011;2592;48.140;7.614;2022-08-19T05:30:43;20.10;;;14.50;;
5147;SDS011;2592;48.140;7.614;2022-08-19T05:33:09;16.33;;;14.60;;
5147;SDS011;2592;48.140;7.614;2022-08-19T05:35:38;15.10;;;13.17;;
5147;SDS011;2592;48.140;7.614;2022-08-19T05:38:06;16.50;;;14.43;;
5147;SDS011;2592;48.140;7.614;2022-08-19T05:40:33;15.80;;;14.17;;
5147;SDS011;2592;48.140;7.614;2022-08-19T05:43:01;18.00;;;14.03;;
5147;SDS011;2592;48.140;7.614;2022-08-19T05:45:27;21.80;;;13.67;;
5147;SDS011;2592;48.140;7.614;2022-08-19T05:47:53;17.77;;;13.27;;
5147;SDS011;2592;48.140;7.614;2022-08-19T05:50:20;15.63;;;14.07;;
5147;SDS011;2592;48.140;7.614;2022-08-19T05:52:48;14.60;;;13.20;;
5147;SDS011;2592;48.140;7.614;2022-08-19T05:55:15;14.17;;;12.87;;
5147;SDS011;2592;48.140;7.614;2022-08-19T05:57:41;17.63;;;13.10;;
5147;SDS011;2592;48.140;7.614;2022-08-19T06:00:08;16.40;;;14.50;;
5147;SDS011;2592;48.140;7.614;2022-08-19T06:02:35;14.03;;;12.53;;
5147;SDS011;2592;48.140;7.614;2022-08-19T06:05:02;18.40;;;13.73;;
5147;SDS011;2592;48.140;7.614;2022-08-19T06:07:28;14.53;;;12.90;;
5147;SDS011;2592;48.140;7.614;2022-08-19T06:09:56;14.27;;;12.77;;
5147;SDS011;2592;48.140;7.614;2022-08-19T06:12:23;14.83;;;13.33;;
5147;SDS011;2592;48.140;7.614;2022-08-19T06:14:53;17.00;;;14.27;;
5147;SDS011;2592;48.140;7.614;2022-08-19T06:17:20;14.10;;;12.70;;
5147;SDS011;2592;48.140;7.614;2022-08-19T06:19:50;16.73;;;13.47;;
5147;SDS011;2592;48.140;7.614;2022-08-19T06:22:16;14.13;;;12.70;;
5147;SDS011;2592;48.140;7.614;2022-08-19T06:24:42;13.90;;;12.47;;
5147;SDS011;2592;48.140;7.614;2022-08-19T06:27:10;16.60;;;11.77;;
5147;SDS011;2592;48.140;7.614;2022-08-19T06:29:37;16.23;;;12.93;;
5147;SDS011;2592;48.140;7.614;2022-08-19T06:32:04;15.27;;;13.73;;
5147;SDS011;2592;48.140;7.614;2022-08-19T06:34:31;17.57;;;14.57;;
5147;SDS011;2592;48.140;7.614;2022-08-19T06:36:58;14.63;;;13.13;;
5147;SDS011;2592;48.140;7.614;2022-08-19T06:39:26;15.63;;;13.90;;
5147;SDS011;2592;48.140;7.614;2022-08-19T06:41:54;13.50;;;12.13;;
5147;SDS011;2592;48.140;7.614;2022-08-19T06:44:23;15.70;;;13.40;;
5147;SDS011;2592;48.140;7.614;2022-08-19T06:46:50;13.40;;;12.00;;
5147;SDS011;2592;48.140;7.614;2022-08-19T06:49:17;14.40;;;12.93;;
5147;SDS011;2592;48.140;7.614;2022-08-19T06:51:44;16.67;;;14.87;;
5147;SDS011;2592;48.140;7.614;2022-08-19T06:54:12;15.10;;;13.33;;
5147;SDS011;2592;48.140;7.614;2022-08-19T06:56:38;20.70;;;14.73;;
5147;SDS011;2592;48.140;7.614;2022-08-19T06:59:05;15.77;;;14.10;;
5147;SDS011;2592;48.140;7.614;2022-08-19T07:01:35;17.53;;;14.70;;
5147;SDS011;2592;48.140;7.614;2022-08-19T07:04:03;16.17;;;13.10;;
5147;SDS011;2592;48.140;7.614;2022-08-19T07:06:29;19.00;;;14.47;;
5147;SDS011;2592;48.140;7.614;2022-08-19T07:08:56;16.30;;;14.70;;
5147;SDS011;2592;48.140;7.614;2022-08-19T07:11:23;18.10;;;15.33;;
5147;SDS011;2592;48.140;7.614;2022-08-19T07:13:50;20.10;;;15.00;;
5147;SDS011;2592;48.140;7.614;2022-08-19T07:16:17;17.40;;;14.20;;
5147;SDS011;2592;48.140;7.614;2022-08-19T07:18:46;16.57;;;14.70;;
5147;SDS011;2592;48.140;7.614;2022-08-19T07:21:14;19.10;;;15.53;;
5147;SDS011;2592;48.140;7.614;2022-08-19T07:23:41;15.77;;;14.17;;
5147;SDS011;2592;48.140;7.614;2022-08-19T07:26:08;17.00;;;14.57;;
5147;SDS011;2592;48.140;7.614;2022-08-19T07:28:35;16.50;;;14.90;;
5147;SDS011;2592;48.140;7.614;2022-08-19T07:31:04;17.00;;;14.77;;
5147;SDS011;2592;48.140;7.614;2022-08-19T07:33:31;16.57;;;13.00;;
5147;SDS011;2592;48.140;7.614;2022-08-19T07:35:59;15.80;;;14.10;;
5147;SDS011;2592;48.140;7.614;2022-08-19T07:38:25;14.90;;;13.03;;
5147;SDS011;2592;48.140;7.614;2022-08-19T07:40:51;19.20;;;15.03;;
5147;SDS011;2592;48.140;7.614;2022-08-19T07:43:18;18.47;;;14.13;;
5147;SDS011;2592;48.140;7.614;2022-08-19T07:45:48;19.03;;;13.70;;
5147;SDS011;2592;48.140;7.614;2022-08-19T07:48:14;16.93;;;14.70;;
5147;SDS011;2592;48.140;7.614;2022-08-19T07:50:40;17.40;;;15.70;;
5147;SDS011;2592;48.140;7.614;2022-08-19T07:53:08;15.70;;;14.10;;
5147;SDS011;2592;48.140;7.614;2022-08-19T07:55:35;16.83;;;15.33;;
5147;SDS011;2592;48.140;7.614;2022-08-19T07:58:01;16.90;;;14.70;;
5147;SDS011;2592;48.140;7.614;2022-08-19T08:00:29;17.40;;;15.60;;
5147;SDS011;2592;48.140;7.614;2022-08-19T08:02:56;16.97;;;15.27;;
5147;SDS011;2592;48.140;7.614;2022-08-19T08:05:22;17.47;;;15.67;;
5147;SDS011;2592;48.140;7.614;2022-08-19T08:08:06;20.43;;;16.83;;
5147;SDS011;2592;48.140;7.614;2022-08-19T08:10:51;17.30;;;15.43;;
5147;SDS011;2592;48.140;7.614;2022-08-19T08:13:18;18.97;;;15.50;;
5147;SDS011;2592;48.140;7.614;2022-08-19T08:15:44;16.83;;;15.23;;
5147;SDS011;2592;48.140;7.614;2022-08-19T08:18:11;21.00;;;17.80;;
5147;SDS011;2592;48.140;7.614;2022-08-19T08:20:37;21.57;;;16.90;;
5147;SDS011;2592;48.140;7.614;2022-08-19T08:23:03;25.70;;;16.80;;
5147;SDS011;2592;48.140;7.614;2022-08-19T08:25:49;19.17;;;16.93;;
5147;SDS011;2592;48.140;7.614;2022-08-19T08:28:17;22.37;;;16.53;;
5147;SDS011;2592;48.140;7.614;2022-08-19T08:30:45;18.60;;;16.47;;
5147;SDS011;2592;48.140;7.614;2022-08-19T08:33:12;21.30;;;16.70;;
5147;SDS011;2592;48.140;7.614;2022-08-19T08:35:39;17.73;;;15.93;;
5147;SDS011;2592;48.140;7.614;2022-08-19T08:38:06;19.77;;;17.43;;
5147;SDS011;2592;48.140;7.614;2022-08-19T08:40:42;19.13;;;15.50;;
5147;SDS011;2592;48.140;7.614;2022-08-19T08:43:21;18.63;;;16.67;;
5147;SDS011;2592;48.140;7.614;2022-08-19T08:45:51;18.97;;;17.17;;
5147;SDS011;2592;48.140;7.614;2022-08-19T08:48:20;22.07;;;18.27;;
5147;SDS011;2592;48.140;7.614;2022-08-19T08:50:47;20.20;;;16.03;;
5147;SDS011;2592;48.140;7.614;2022-08-19T08:53:18;22.73;;;18.23;;
5147;SDS011;2592;48.140;7.614;2022-08-19T08:55:45;19.00;;;17.00;;
5147;SDS011;2592;48.140;7.614;2022-08-19T08:58:13;24.67;;;19.87;;
5147;SDS011;2592;48.140;7.614;2022-08-19T09:00:43;20.00;;;17.20;;
5147;SDS011;2592;48.140;7.614;2022-08-19T09:03:14;27.93;;;17.67;;
5147;SDS011;2592;48.140;7.614;2022-08-19T09:08:26;20.13;;;17.90;;
5147;SDS011;2592;48.140;7.614;2022-08-19T09:10:55;24.87;;;19.47;;
5147;SDS011;2592;48.140;7.614;2022-08-19T09:13:24;21.37;;;19.23;;
5147;SDS011;2592;48.140;7.614;2022-08-19T09:15:52;22.57;;;18.90;;
5147;SDS011;2592;48.140;7.614;2022-08-19T09:18:21;22.13;;;19.97;;
5147;SDS011;2592;48.140;7.614;2022-08-19T09:20:47;21.73;;;18.10;;
5147;SDS011;2592;48.140;7.614;2022-08-19T09:23:14;21.40;;;19.03;;
5147;SDS011;2592;48.140;7.614;2022-08-19T09:25:41;29.73;;;19.07;;
5147;SDS011;2592;48.140;7.614;2022-08-19T09:28:07;21.80;;;19.63;;
5147;SDS011;2592;48.140;7.614;2022-08-19T09:30:36;21.30;;;19.03;;
5147;SDS011;2592;48.140;7.614;2022-08-19T09:33:04;20.60;;;18.30;;
5147;SDS011;2592;48.140;7.614;2022-08-19T09:35:32;23.03;;;18.37;;
5147;SDS011;2592;48.140;7.614;2022-08-19T09:38:00;27.87;;;20.50;;
5147;SDS011;2592;48.140;7.614;2022-08-19T09:40:28;21.47;;;19.17;;
5147;SDS011;2592;48.140;7.614;2022-08-19T09:42:54;22.00;;;17.47;;
5147;SDS011;2592;48.140;7.614;2022-08-19T09:45:22;23.30;;;18.63;;
5147;SDS011;2592;48.140;7.614;2022-08-19T09:50:31;22.33;;;19.70;;
5147;SDS011;2592;48.140;7.614;2022-08-19T09:53:00;21.27;;;19.00;;
5147;SDS011;2592;48.140;7.614;2022-08-19T09:55:27;25.33;;;19.63;;
5147;SDS011;2592;48.140;7.614;2022-08-19T09:57:53;22.60;;;20.10;;
5147;SDS011;2592;48.140;7.614;2022-08-19T10:00:20;22.83;;;19.37;;
5147;SDS011;2592;48.140;7.614;2022-08-19T10:02:46;22.57;;;19.97;;
5147;SDS011;2592;48.140;7.614;2022-08-19T10:05:13;21.37;;;18.97;;
5147;SDS011;2592;48.140;7.614;2022-08-19T10:07:58;23.83;;;19.40;;
5147;SDS011;2592;48.140;7.614;2022-08-19T10:10:25;19.00;;;17.03;;
5147;SDS011;2592;48.140;7.614;2022-08-19T10:12:52;23.20;;;20.10;;
5147;SDS011;2592;48.140;7.614;2022-08-19T10:15:20;20.73;;;18.60;;
5147;SDS011;2592;48.140;7.614;2022-08-19T10:17:46;23.07;;;20.53;;
5147;SDS011;2592;48.140;7.614;2022-08-19T10:20:13;22.80;;;20.27;;
5147;SDS011;2592;48.140;7.614;2022-08-19T10:22:39;22.37;;;20.17;;
5147;SDS011;2592;48.140;7.614;2022-08-19T10:25:08;22.90;;;19.63;;
5147;SDS011;2592;48.140;7.614;2022-08-19T10:27:34;21.70;;;18.37;;
5147;SDS011;2592;48.140;7.614;2022-08-19T10:30:02;23.77;;;20.90;;
5147;SDS011;2592;48.140;7.614;2022-08-19T10:32:28;20.60;;;18.43;;
5147;SDS011;2592;48.140;7.614;2022-08-19T10:34:55;21.57;;;19.00;;
5147;SDS011;2592;48.140;7.614;2022-08-19T10:37:22;22.87;;;19.50;;
5147;SDS011;2592;48.140;7.614;2022-08-19T10:39:48;20.10;;;18.20;;
5147;SDS011;2592;48.140;7.614;2022-08-19T10:42:16;23.33;;;21.00;;
5147;SDS011;2592;48.140;7.614;2022-08-19T10:44:43;22.50;;;20.10;;
5147;SDS011;2592;48.140;7.614;2022-08-19T10:47:12;21.40;;;19.00;;
5147;SDS011;2592;48.140;7.614;2022-08-19T10:49:38;30.60;;;20.40;;
5147;SDS011;2592;48.140;7.614;2022-08-19T10:52:19;24.30;;;20.80;;
5147;SDS011;2592;48.140;7.614;2022-08-19T10:55:00;22.63;;;20.40;;
5147;SDS011;2592;48.140;7.614;2022-08-19T10:57:46;24.53;;;18.90;;
5147;SDS011;2592;48.140;7.614;2022-08-19T11:00:12;21.60;;;19.37;;
5147;SDS011;2592;48.140;7.614;2022-08-19T11:02:39;29.90;;;21.30;;
5147;SDS011;2592;48.140;7.614;2022-08-19T11:05:07;20.60;;;18.40;;
5147;SDS011;2592;48.140;7.614;2022-08-19T11:07:35;22.53;;;19.50;;
5147;SDS011;2592;48.140;7.614;2022-08-19T11:10:02;21.93;;;18.70;;
5147;SDS011;2592;48.140;7.614;2022-08-19T11:12:29;21.10;;;19.10;;
5147;SDS011;2592;48.140;7.614;2022-08-19T11:14:57;29.17;;;23.17;;
5147;SDS011;2592;48.140;7.614;2022-08-19T11:17:24;21.87;;;18.10;;
5147;SDS011;2592;48.140;7.614;2022-08-19T11:19:50;22.20;;;19.80;;
5147;SDS011;2592;48.140;7.614;2022-08-19T11:22:17;20.57;;;18.47;;
5147;SDS011;2592;48.140;7.614;2022-08-19T11:24:43;26.00;;;18.77;;
5147;SDS011;2592;48.140;7.614;2022-08-19T11:27:10;21.37;;;19.17;;
5147;SDS011;2592;48.140;7.614;2022-08-19T11:29:37;21.53;;;18.80;;
5147;SDS011;2592;48.140;7.614;2022-08-19T11:32:06;21.93;;;19.47;;
5147;SDS011;2592;48.140;7.614;2022-08-19T11:34:33;21.60;;;17.93;;
5147;SDS011;2592;48.140;7.614;2022-08-19T11:37:01;17.47;;;15.40;;
5147;SDS011;2592;48.140;7.614;2022-08-19T11:39:29;22.20;;;18.60;;
5147;SDS011;2592;48.140;7.614;2022-08-19T11:41:57;20.33;;;16.70;;
5147;SDS011;2592;48.140;7.614;2022-08-19T11:44:23;19.30;;;17.37;;
5147;SDS011;2592;48.140;7.614;2022-08-19T11:46:50;20.73;;;16.20;;
5147;SDS011;2592;48.140;7.614;2022-08-19T11:49:19;19.93;;;16.13;;
5147;SDS011;2592;48.140;7.614;2022-08-19T11:51:46;24.13;;;16.10;;
5147;SDS011;2592;48.140;7.614;2022-08-19T11:54:13;18.30;;;16.40;;
5147;SDS011;2592;48.140;7.614;2022-08-19T11:56:41;18.30;;;16.40;;
5147;SDS011;2592;48.140;7.614;2022-08-19T11:59:07;18.90;;;14.97;;
5147;SDS011;2592;48.140;7.614;2022-08-19T12:01:35;15.10;;;13.53;;
5147;SDS011;2592;48.140;7.614;2022-08-19T12:04:02;19.63;;;13.03;;
5147;SDS011;2592;48.140;7.614;2022-08-19T12:06:32;16.30;;;14.27;;
5147;SDS011;2592;48.140;7.614;2022-08-19T12:09:00;13.00;;;11.70;;
5147;SDS011;2592;48.140;7.614;2022-08-19T12:11:27;14.70;;;13.20;;
5147;SDS011;2592;48.140;7.614;2022-08-19T12:13:53;16.30;;;14.70;;
5147;SDS011;2592;48.140;7.614;2022-08-19T12:16:20;29.93;;;14.63;;
5147;SDS011;2592;48.140;7.614;2022-08-19T12:18:48;14.13;;;12.83;;
5147;SDS011;2592;48.140;7.614;2022-08-19T12:21:16;16.23;;;14.43;;
5147;SDS011;2592;48.140;7.614;2022-08-19T12:23:44;15.73;;;14.20;;
5147;SDS011;2592;48.140;7.614;2022-08-19T12:26:11;17.77;;;14.47;;
5147;SDS011;2592;48.140;7.614;2022-08-19T12:28:38;15.80;;;14.20;;
5147;SDS011;2592;48.140;7.614;2022-08-19T12:31:04;16.93;;;15.20;;
5147;SDS011;2592;48.140;7.614;2022-08-19T12:33:31;16.90;;;15.10;;
5147;SDS011;2592;48.140;7.614;2022-08-19T12:35:59;16.87;;;15.13;;
5147;SDS011;2592;48.140;7.614;2022-08-19T12:38:26;17.70;;;14.37;;
5147;SDS011;2592;48.140;7.614;2022-08-19T12:40:54;16.90;;;15.20;;
5147;SDS011;2592;48.140;7.614;2022-08-19T12:43:23;16.57;;;14.87;;
5147;SDS011;2592;48.140;7.614;2022-08-19T12:45:50;16.63;;;15.03;;
5147;SDS011;2592;48.140;7.614;2022-08-19T12:48:16;18.53;;;14.73;;
5147;SDS011;2592;48.140;7.614;2022-08-19T12:50:43;15.67;;;13.90;;
5147;SDS011;2592;48.140;7.614;2022-08-19T12:53:11;23.67;;;18.07;;
5147;SDS011;2592;48.140;7.614;2022-08-19T12:55:38;20.70;;;15.87;;
5147;SDS011;2592;48.140;7.614;2022-08-19T12:58:06;16.73;;;15.13;;
5147;SDS011;2592;48.140;7.614;2022-08-19T13:00:32;16.10;;;14.43;;
5147;SDS011;2592;48.140;7.614;2022-08-19T13:02:59;19.40;;;14.90;;
5147;SDS011;2592;48.140;7.614;2022-08-19T13:05:26;16.90;;;15.20;;
5147;SDS011;2592;48.140;7.614;2022-08-19T13:07:54;20.43;;;15.73;;
5147;SDS011;2592;48.140;7.614;2022-08-19T13:10:23;17.63;;;14.10;;
5147;SDS011;2592;48.140;7.614;2022-08-19T13:12:50;18.20;;;15.57;;
5147;SDS011;2592;48.140;7.614;2022-08-19T13:15:20;16.10;;;14.53;;
5147;SDS011;2592;48.140;7.614;2022-08-19T13:17:47;16.07;;;14.27;;
5147;SDS011;2592;48.140;7.614;2022-08-19T13:20:14;15.90;;;13.43;;
5147;SDS011;2592;48.140;7.614;2022-08-19T13:22:41;19.37;;;13.40;;
5147;SDS011;2592;48.140;7.614;2022-08-19T13:25:10;14.47;;;12.97;;
5147;SDS011;2592;48.140;7.614;2022-08-19T13:27:36;15.47;;;11.70;;
5147;SDS011;2592;48.140;7.614;2022-08-19T13:30:04;13.13;;;11.73;;
5147;SDS011;2592;48.140;7.614;2022-08-19T13:32:49;12.30;;;11.10;;
5147;SDS011;2592;48.140;7.614;2022-08-19T13:35:33;19.03;;;12.50;;
5147;SDS011;2592;48.140;7.614;2022-08-19T13:37:59;19.73;;;13.90;;
5147;SDS011;2592;48.140;7.614;2022-08-19T13:40:29;15.03;;;12.60;;
5147;SDS011;2592;48.140;7.614;2022-08-19T13:42:59;13.93;;;12.63;;
5147;SDS011;2592;48.140;7.614;2022-08-19T13:45:26;22.00;;;13.30;;
5147;SDS011;2592;48.140;7.614;2022-08-19T13:47:55;14.87;;;12.47;;
5147;SDS011;2592;48.140;7.614;2022-08-19T13:50:23;13.23;;;10.00;;
5147;SDS011;2592;48.140;7.614;2022-08-19T13:52:51;13.77;;;11.17;;
5147;SDS011;2592;48.140;7.614;2022-08-19T13:55:17;12.27;;;10.50;;
5147;SDS011;2592;48.140;7.614;2022-08-19T13:57:44;19.60;;;12.87;;
5147;SDS011;2592;48.140;7.614;2022-08-19T14:00:14;15.17;;;12.17;;
5147;SDS011;2592;48.140;7.614;2022-08-19T14:02:42;17.60;;;14.03;;
5147;SDS011;2592;48.140;7.614;2022-08-19T14:05:11;15.80;;;13.83;;
5147;SDS011;2592;48.140;7.614;2022-08-19T14:07:38;15.80;;;14.20;;
5147;SDS011;2592;48.140;7.614;2022-08-19T14:10:06;17.40;;;15.80;;
5147;SDS011;2592;48.140;7.614;2022-08-19T14:12:34;17.20;;;15.60;;
5147;SDS011;2592;48.140;7.614;2022-08-19T14:15:00;20.60;;;14.67;;
5147;SDS011;2592;48.140;7.614;2022-08-19T14:17:27;20.53;;;16.30;;
5147;SDS011;2592;48.140;7.614;2022-08-19T14:19:55;18.93;;;17.07;;
5147;SDS011;2592;48.140;7.614;2022-08-19T14:22:23;23.83;;;16.93;;
5147;SDS011;2592;48.140;7.614;2022-08-19T14:24:49;18.47;;;16.47;;
5147;SDS011;2592;48.140;7.614;2022-08-19T14:27:16;17.93;;;14.97;;
5147;SDS011;2592;48.140;7.614;2022-08-19T14:29:42;21.10;;;17.80;;
5147;SDS011;2592;48.140;7.614;2022-08-19T14:32:09;20.50;;;17.40;;
5147;SDS011;2592;48.140;7.614;2022-08-19T14:34:36;21.27;;;19.03;;
5147;SDS011;2592;48.140;7.614;2022-08-19T14:37:03;23.63;;;18.40;;
5147;SDS011;2592;48.140;7.614;2022-08-19T14:39:32;30.50;;;19.83;;
5147;SDS011;2592;48.140;7.614;2022-08-19T14:41:58;23.53;;;19.53;;
5147;SDS011;2592;48.140;7.614;2022-08-19T14:44:25;19.80;;;17.77;;
5147;SDS011;2592;48.140;7.614;2022-08-19T14:46:51;23.50;;;20.27;;
5147;SDS011;2592;48.140;7.614;2022-08-19T14:49:18;28.00;;;18.90;;
5147;SDS011;2592;48.140;7.614;2022-08-19T14:51:44;19.43;;;17.20;;
5147;SDS011;2592;48.140;7.614;2022-08-19T14:54:11;21.37;;;19.17;;
5147;SDS011;2592;48.140;7.614;2022-08-19T14:56:39;20.73;;;18.63;;
5147;SDS011;2592;48.140;7.614;2022-08-19T14:59:06;22.20;;;17.67;;